createdAt,value
2019-03-16T00:00:01.399Z,101115.59
2019-03-16T00:02:30.484Z,101120.02
2019-03-16T00:04:58.371Z,101124.66
2019-03-16T00:07:32.986Z,101114.42
2019-03-16T00:09:56.104Z,101111.84
2019-03-16T00:12:25.269Z,101111.63
2019-03-16T00:14:53.203Z,101105.23
2019-03-16T00:17:23.711Z,101104.25
2019-03-16T00:19:51.016Z,101101.39
2019-03-16T00:22:18.884Z,101089.73
2019-03-16T00:24:47.004Z,101093.72
2019-03-16T00:27:15.463Z,101094.64
2019-03-16T00:29:43.429Z,101105.64
2019-03-16T00:32:13.781Z,101106.28
2019-03-16T00:34:42.008Z,101108.77
2019-03-16T00:37:09.956Z,101111.08
2019-03-16T00:39:37.998Z,101100.98
2019-03-16T00:42:05.960Z,101110.03
2019-03-16T00:44:34.884Z,101104.11
2019-03-16T00:47:03.617Z,101100.19
2019-03-16T00:49:33.575Z,101104.33
2019-03-16T00:52:01.357Z,101104.25
2019-03-16T00:54:29.995Z,101113.03
2019-03-16T00:56:58.007Z,101114.78
2019-03-16T00:59:25.971Z,101111.33
2019-03-16T01:01:55.206Z,101111.84
2019-03-16T01:04:23.320Z,101113.81
2019-03-16T01:06:51.435Z,101105.26
2019-03-16T01:09:19.901Z,101111.17
2019-03-16T01:11:48.925Z,101108.65
2019-03-16T01:14:17.494Z,101110.45
2019-03-16T01:16:45.370Z,101109.33
2019-03-16T01:19:13.622Z,101107.59
2019-03-16T01:21:41.677Z,101106.95
2019-03-16T01:24:09.687Z,101107.53
2019-03-16T01:26:37.923Z,101113.70
2019-03-16T01:29:07.081Z,101110.50
2019-03-16T01:31:34.979Z,101108.80
2019-03-16T01:34:04.123Z,101104.69
2019-03-16T01:36:32.117Z,101110.53
2019-03-16T01:39:00.210Z,101105.30
2019-03-16T01:41:28.044Z,101105.81
2019-03-16T01:43:56.427Z,101107.45
2019-03-16T01:46:24.405Z,101098.95
2019-03-16T01:48:54.223Z,101096.60
2019-03-16T01:51:22.053Z,101098.59
2019-03-16T01:53:50.291Z,101093.52
2019-03-16T01:56:18.657Z,101088.53
2019-03-16T01:58:46.733Z,101090.34
2019-03-16T02:01:14.564Z,101085.34
2019-03-16T02:03:42.391Z,101081.28
2019-03-16T02:06:10.446Z,101073.55
2019-03-16T02:08:38.268Z,101076.20
2019-03-16T02:11:08.181Z,101066.97
2019-03-16T02:13:36.205Z,101062.80
2019-03-16T02:16:10.804Z,101066.20
2019-03-16T02:18:34.238Z,101064.36
2019-03-16T02:21:03.587Z,101068.02
2019-03-16T02:23:35.437Z,101075.67
2019-03-16T02:26:06.584Z,101081.16
2019-03-16T02:28:34.870Z,101079.73
2019-03-16T02:31:03.050Z,101071.93
2019-03-16T02:33:31.148Z,101068.48
2019-03-16T02:35:59.221Z,101056.27
2019-03-16T02:38:27.610Z,101059.67
2019-03-16T02:40:55.817Z,101058.23
2019-03-16T02:43:31.591Z,101054.96
2019-03-16T02:46:01.534Z,101049.70
2019-03-16T02:48:32.726Z,101050.16
2019-03-16T02:51:00.770Z,101057.06
2019-03-16T02:53:28.812Z,101044.92
2019-03-16T02:55:56.997Z,101050.78
2019-03-16T02:58:24.999Z,101038.33
2019-03-16T03:00:52.955Z,101037.47
2019-03-16T03:03:29.103Z,101035.26
2019-03-16T03:05:54.146Z,101040.64
2019-03-16T03:08:22.711Z,101033.63
2019-03-16T03:10:51.037Z,101039.80
2019-03-16T03:13:19.126Z,101032.62
2019-03-16T03:15:47.032Z,101033.16
2019-03-16T03:18:15.146Z,101034.98
2019-03-16T03:20:45.061Z,101030.66
2019-03-16T03:23:12.996Z,101025.36
2019-03-16T03:25:41.137Z,101023.25
2019-03-16T03:28:09.317Z,101020.17
2019-03-16T03:30:37.488Z,101017.80
2019-03-16T03:33:08.944Z,101016.52
2019-03-16T03:35:37.076Z,101017.31
2019-03-16T03:38:05.232Z,101021.21
2019-03-16T03:40:36.106Z,101010.14
2019-03-16T03:43:04.724Z,101008.81
2019-03-16T03:45:34.747Z,101005.80
2019-03-16T03:48:04.369Z,101002.39
2019-03-16T03:50:32.208Z,101007.94
2019-03-16T03:53:00.029Z,100997.13
2019-03-16T03:55:30.205Z,100994.42
2019-03-16T03:57:58.766Z,100988.33
2019-03-16T04:00:27.381Z,100987.92
2019-03-16T04:02:56.093Z,100996.92
2019-03-16T04:05:24.834Z,100987.83
2019-03-16T04:07:56.416Z,100984.81
2019-03-16T04:10:24.716Z,100984.00
2019-03-16T04:12:53.154Z,100991.82
2019-03-16T04:15:21.263Z,100980.74
2019-03-16T04:17:50.894Z,100976.26
2019-03-16T04:20:18.870Z,100987.92
2019-03-16T04:22:47.024Z,100984.23
2019-03-16T04:25:14.818Z,100986.63
2019-03-16T04:27:42.840Z,100970.11
2019-03-16T04:30:10.846Z,100975.10
2019-03-16T04:32:38.702Z,100973.68
2019-03-16T04:35:08.077Z,100974.00
2019-03-16T04:37:36.419Z,100972.22
2019-03-16T04:40:04.934Z,100967.73
2019-03-16T04:42:32.947Z,100957.98
2019-03-16T04:45:00.749Z,100956.84
2019-03-16T04:47:31.488Z,100956.16
2019-03-16T04:50:00.829Z,100963.38
2019-03-16T04:52:28.689Z,100960.13
2019-03-16T04:54:59.184Z,100959.93
2019-03-16T04:57:27.248Z,100952.68
2019-03-16T04:59:55.484Z,100946.14
2019-03-16T05:02:23.797Z,100944.28
2019-03-16T05:04:51.651Z,100946.77
2019-03-16T05:07:19.800Z,100948.76
2019-03-16T05:09:47.674Z,100947.56
2019-03-16T05:12:16.537Z,100936.11
2019-03-16T05:14:44.819Z,100939.44
2019-03-16T05:17:12.664Z,100933.17
2019-03-16T05:19:40.610Z,100924.42
2019-03-16T05:22:09.718Z,100923.44
2019-03-16T05:24:37.613Z,100924.15
2019-03-16T05:27:05.402Z,100920.06
2019-03-16T05:29:33.179Z,100922.68
2019-03-16T05:32:01.078Z,100918.13
2019-03-16T05:34:28.829Z,100908.22
2019-03-16T05:36:56.714Z,100906.59
2019-03-16T05:39:24.507Z,100899.83
2019-03-16T05:41:52.294Z,100905.61
2019-03-16T05:44:20.194Z,100918.52
2019-03-16T05:46:47.975Z,100911.39
2019-03-16T05:49:15.903Z,100909.19
2019-03-16T05:51:43.730Z,100907.89
2019-03-16T05:54:11.649Z,100901.20
2019-03-16T05:56:39.562Z,100897.78
2019-03-16T05:59:07.342Z,100893.42
2019-03-16T06:01:35.291Z,100896.03
2019-03-16T06:04:03.113Z,100894.56
2019-03-16T06:06:30.965Z,100895.63
2019-03-16T06:08:58.827Z,100877.33
2019-03-16T06:11:26.736Z,100893.64
2019-03-16T06:13:54.635Z,100882.20
2019-03-16T06:16:22.461Z,100885.01
2019-03-16T06:18:50.265Z,100888.58
2019-03-16T06:21:18.165Z,100884.34
2019-03-16T06:23:45.947Z,100877.60
2019-03-16T06:26:13.735Z,100875.39
2019-03-16T06:28:41.618Z,100870.48
2019-03-16T06:31:09.388Z,100874.80
2019-03-16T06:33:37.397Z,100869.28
2019-03-16T06:36:05.363Z,100864.17
2019-03-16T06:38:33.146Z,100865.77
2019-03-16T06:41:00.953Z,100867.89
2019-03-16T06:43:28.842Z,100857.80
2019-03-16T06:45:56.643Z,100849.64
2019-03-16T06:48:24.545Z,100850.33
2019-03-16T06:50:52.340Z,100852.42
2019-03-16T06:53:20.147Z,100855.98
2019-03-16T06:55:48.317Z,100849.41
2019-03-16T06:58:16.087Z,100847.11
2019-03-16T07:00:43.878Z,100847.39
2019-03-16T07:03:13.687Z,100844.42
2019-03-16T07:05:41.479Z,100856.34
2019-03-16T07:08:11.548Z,100849.33
2019-03-16T07:10:39.427Z,100841.73
2019-03-16T07:13:07.231Z,100854.40
2019-03-16T07:15:35.392Z,100842.59
2019-03-16T07:18:03.194Z,100848.61
2019-03-16T07:20:31.114Z,100855.82
2019-03-16T07:22:58.923Z,100861.44
2019-03-16T07:25:26.728Z,100867.14
2019-03-16T07:27:54.684Z,100861.65
2019-03-16T07:30:22.486Z,100865.41
2019-03-16T07:32:50.273Z,100858.59
2019-03-16T07:35:18.266Z,100863.27
2019-03-16T07:37:46.061Z,100873.25
2019-03-16T07:40:13.990Z,100872.38
2019-03-16T07:42:41.970Z,100880.11
2019-03-16T07:45:09.818Z,100882.77
2019-03-16T07:47:37.617Z,100870.12
2019-03-16T07:50:06.100Z,100871.03
2019-03-16T07:52:34.004Z,100871.50
2019-03-16T07:55:01.824Z,100872.50
2019-03-16T07:57:39.533Z,100868.58
2019-03-16T07:59:59.764Z,100866.35
2019-03-16T08:02:27.611Z,100864.42
2019-03-16T08:04:55.504Z,100860.18
2019-03-16T08:07:23.298Z,100857.05
2019-03-16T08:09:52.692Z,100852.45
2019-03-16T08:12:20.650Z,100854.15
2019-03-16T08:14:48.446Z,100850.59
2019-03-16T08:17:16.474Z,100846.61
2019-03-16T08:19:44.281Z,100849.47
2019-03-16T08:22:12.075Z,100850.14
2019-03-16T08:24:40.096Z,100848.06
2019-03-16T08:27:08.062Z,100837.91
2019-03-16T08:29:35.974Z,100844.22
2019-03-16T08:32:03.804Z,100843.61
2019-03-16T08:34:31.593Z,100834.91
2019-03-16T08:36:59.579Z,100842.14
2019-03-16T08:39:27.359Z,100836.89
2019-03-16T08:41:55.298Z,100834.20
2019-03-16T08:44:23.205Z,100833.34
2019-03-16T08:46:51.020Z,100827.59
2019-03-16T08:49:18.949Z,100834.25
2019-03-16T08:51:46.804Z,100832.50
2019-03-16T08:54:14.739Z,100847.66
2019-03-16T08:56:42.511Z,100840.11
2019-03-16T08:59:10.364Z,100837.73
2019-03-16T09:01:38.236Z,100835.77
2019-03-16T09:04:06.073Z,100822.22
2019-03-16T09:06:33.980Z,100820.39
2019-03-16T09:09:01.791Z,100803.72
2019-03-16T09:11:29.731Z,100802.27
2019-03-16T09:13:58.384Z,100802.05
2019-03-16T09:16:26.401Z,100813.84
2019-03-16T09:18:54.196Z,100808.59
2019-03-16T09:21:22.124Z,100800.58
2019-03-16T09:23:50.341Z,100804.62
2019-03-16T09:26:18.165Z,100800.31
2019-03-16T09:28:46.074Z,100782.94
2019-03-16T09:31:14.014Z,100784.38
2019-03-16T09:33:41.840Z,100777.92
2019-03-16T09:36:09.865Z,100763.61
2019-03-16T09:38:37.769Z,100770.63
2019-03-16T09:41:05.576Z,100767.36
2019-03-16T09:43:33.440Z,100791.43
2019-03-16T09:46:01.392Z,100780.58
2019-03-16T09:48:29.310Z,100775.52
2019-03-16T09:50:57.075Z,100782.69
2019-03-16T09:53:24.879Z,100784.02
2019-03-16T09:55:52.805Z,100775.93
2019-03-16T09:58:30.748Z,100781.62
2019-03-16T10:00:50.532Z,100755.02
2019-03-16T10:03:18.306Z,100774.09
2019-03-16T10:05:46.115Z,100777.39
2019-03-16T10:08:14.053Z,100768.18
2019-03-16T10:10:41.820Z,100778.16
2019-03-16T10:13:09.632Z,100781.88
2019-03-16T10:15:38.438Z,100772.14
2019-03-16T10:18:06.269Z,100775.42
2019-03-16T10:20:34.247Z,100769.02
2019-03-16T10:23:02.231Z,100772.75
2019-03-16T10:25:30.259Z,100775.44
2019-03-16T10:27:58.164Z,100773.05
2019-03-16T10:30:25.966Z,100758.70
2019-03-16T10:32:53.888Z,100764.28
2019-03-16T10:35:21.670Z,100760.69
2019-03-16T10:37:49.573Z,100756.55
2019-03-16T10:40:17.410Z,100765.72
2019-03-16T10:42:45.274Z,100758.59
2019-03-16T10:45:13.161Z,100766.98
2019-03-16T10:47:41.029Z,100768.28
2019-03-16T10:50:09.261Z,100748.76
2019-03-16T10:52:37.196Z,100750.23
2019-03-16T10:55:05.632Z,100763.09
2019-03-16T10:57:35.241Z,100743.42
2019-03-16T11:00:04.531Z,100756.36
2019-03-16T11:02:32.602Z,100749.91
2019-03-16T11:05:00.612Z,100748.31
2019-03-16T11:07:28.416Z,100746.67
2019-03-16T11:09:56.209Z,100735.52
2019-03-16T11:12:24.087Z,100749.12
2019-03-16T11:14:51.925Z,100733.31
2019-03-16T11:17:22.243Z,100741.36
2019-03-16T11:19:50.312Z,100744.49
2019-03-16T11:22:18.264Z,100737.94
2019-03-16T11:24:46.250Z,100731.48
2019-03-16T11:27:17.032Z,100727.00
2019-03-16T11:29:43.891Z,100721.39
2019-03-16T11:32:11.903Z,100714.14
2019-03-16T11:34:39.695Z,100718.49
2019-03-16T11:37:07.643Z,100718.95
2019-03-16T11:39:35.446Z,100719.04
2019-03-16T11:42:03.266Z,100728.81
2019-03-16T11:44:31.193Z,100715.05
2019-03-16T11:46:59.145Z,100711.95
2019-03-16T11:49:26.938Z,100699.78
2019-03-16T11:51:55.076Z,100702.41
2019-03-16T11:54:22.876Z,100697.11
2019-03-16T11:56:50.923Z,100714.98
2019-03-16T11:59:21.761Z,100714.06
2019-03-16T12:01:48.919Z,100699.98
2019-03-16T12:04:17.202Z,100710.16
2019-03-16T12:06:45.015Z,100703.96
2019-03-16T12:09:12.859Z,100697.79
2019-03-16T12:11:40.918Z,100684.80
2019-03-16T12:14:08.842Z,100703.77
2019-03-16T12:16:36.665Z,100689.88
2019-03-16T12:19:04.531Z,100681.28
2019-03-16T12:21:32.617Z,100686.25
2019-03-16T12:24:00.596Z,100686.39
2019-03-16T12:26:28.389Z,100674.20
2019-03-16T12:28:56.223Z,100703.53
2019-03-16T12:31:24.161Z,100661.28
2019-03-16T12:33:52.170Z,100657.54
2019-03-16T12:36:20.000Z,100687.60
2019-03-16T12:38:47.801Z,100679.73
2019-03-16T12:41:15.708Z,100673.28
2019-03-16T12:43:43.503Z,100666.14
2019-03-16T12:46:11.345Z,100672.45
2019-03-16T12:48:39.253Z,100672.79
2019-03-16T12:51:07.279Z,100697.48
2019-03-16T12:53:35.090Z,100676.45
2019-03-16T12:56:03.338Z,100680.77
2019-03-16T12:58:31.396Z,100672.21
2019-03-16T13:00:59.259Z,100665.31
2019-03-16T13:03:27.060Z,100660.06
2019-03-16T13:05:55.341Z,100650.22
2019-03-16T13:08:24.368Z,100650.95
2019-03-16T13:10:52.273Z,100644.88
2019-03-16T13:13:20.254Z,100640.23
2019-03-16T13:15:48.232Z,100640.81
2019-03-16T13:18:16.153Z,100634.26
2019-03-16T13:20:45.419Z,100642.55
2019-03-16T13:23:13.435Z,100638.70
2019-03-16T13:25:41.556Z,100625.33
2019-03-16T13:28:09.426Z,100641.15
2019-03-16T13:30:37.219Z,100636.01
2019-03-16T13:33:05.716Z,100635.53
2019-03-16T13:35:33.650Z,100637.39
2019-03-16T13:38:01.465Z,100620.73
2019-03-16T13:40:29.524Z,100624.55
2019-03-16T13:42:57.474Z,100621.25
2019-03-16T13:45:25.289Z,100626.16
2019-03-16T13:47:53.156Z,100612.62
2019-03-16T13:50:21.407Z,100624.13
2019-03-16T13:52:49.693Z,100611.66
2019-03-16T13:55:17.522Z,100591.61
2019-03-16T13:57:45.332Z,100603.13
2019-03-16T14:00:14.118Z,100589.50
2019-03-16T14:02:42.441Z,100596.70
2019-03-16T14:05:10.657Z,100593.98
2019-03-16T14:07:38.970Z,100588.64
2019-03-16T14:10:11.340Z,100583.40
2019-03-16T14:12:39.217Z,100589.12
2019-03-16T14:15:07.574Z,100574.52
2019-03-16T14:17:35.808Z,100575.97
2019-03-16T14:20:04.550Z,100566.04
2019-03-16T14:22:32.612Z,100565.94
2019-03-16T14:25:00.458Z,100572.30
2019-03-16T14:27:28.484Z,100572.87
2019-03-16T14:29:56.479Z,100567.61
2019-03-16T14:32:24.428Z,100565.58
2019-03-16T14:34:54.370Z,100557.77
2019-03-16T14:37:22.544Z,100551.72
2019-03-16T14:39:50.594Z,100558.84
2019-03-16T14:42:18.858Z,100542.61
2019-03-16T14:44:46.701Z,100555.53
2019-03-16T14:47:14.729Z,100556.73
2019-03-16T14:49:42.753Z,100538.39
2019-03-16T14:52:11.071Z,100549.52
2019-03-16T14:54:39.042Z,100555.87
2019-03-16T14:57:06.881Z,100534.44
2019-03-16T14:59:34.883Z,100529.13
2019-03-16T15:02:02.697Z,100521.67
2019-03-16T15:04:30.732Z,100516.12
2019-03-16T15:06:58.836Z,100519.61
2019-03-16T15:09:28.083Z,100513.48
2019-03-16T15:11:56.210Z,100518.55
2019-03-16T15:14:25.308Z,100516.43
2019-03-16T15:16:53.109Z,100511.99
2019-03-16T15:19:21.134Z,100507.50
2019-03-16T15:21:49.122Z,100515.42
2019-03-16T15:24:17.090Z,100505.52
2019-03-16T15:26:44.943Z,100499.52
2019-03-16T15:29:12.770Z,100500.09
2019-03-16T15:31:40.792Z,100512.81
2019-03-16T15:34:08.633Z,100486.98
2019-03-16T15:36:36.449Z,100491.30
2019-03-16T15:39:06.783Z,100491.30
2019-03-16T15:41:36.584Z,100505.81
2019-03-16T15:44:04.516Z,100491.95
2019-03-16T15:46:32.524Z,100481.84
2019-03-16T15:49:00.688Z,100488.77
2019-03-16T15:51:28.548Z,100476.88
2019-03-16T15:53:56.545Z,100475.28
2019-03-16T15:56:27.494Z,100468.08
2019-03-16T15:58:54.239Z,100470.52
2019-03-16T16:01:22.227Z,100463.31
2019-03-16T16:03:51.308Z,100456.02
2019-03-16T16:06:19.229Z,100463.87
2019-03-16T16:08:47.291Z,100458.27
2019-03-16T16:11:15.321Z,100471.07
2019-03-16T16:13:43.176Z,100453.02
2019-03-16T16:16:11.187Z,100441.23
2019-03-16T16:18:39.252Z,100441.97
2019-03-16T16:21:07.223Z,100433.84
2019-03-16T16:23:35.043Z,100439.07
2019-03-16T16:26:02.880Z,100428.52
2019-03-16T16:28:36.110Z,100437.88
2019-03-16T16:31:15.707Z,100425.97
2019-03-16T16:33:33.709Z,100417.38
2019-03-16T16:36:01.638Z,100421.41
2019-03-16T16:38:29.755Z,100428.84
2019-03-16T16:40:57.552Z,100409.98
2019-03-16T16:43:25.556Z,100418.48
2019-03-16T16:45:53.385Z,100414.47
2019-03-16T16:48:21.586Z,100414.75
2019-03-16T16:50:51.211Z,100410.82
2019-03-16T16:53:19.133Z,100395.38
2019-03-16T16:55:47.136Z,100408.65
2019-03-16T16:58:14.962Z,100386.97
2019-03-16T17:00:42.802Z,100397.98
2019-03-16T17:03:10.858Z,100393.70
2019-03-16T17:05:38.830Z,100405.30
2019-03-16T17:08:06.659Z,100398.18
2019-03-16T17:10:34.500Z,100396.13
2019-03-16T17:13:02.447Z,100386.69
2019-03-16T17:15:30.309Z,100389.67
2019-03-16T17:17:59.998Z,100386.19
2019-03-16T17:20:28.215Z,100392.94
2019-03-16T17:22:56.141Z,100401.73
2019-03-16T17:25:24.100Z,100404.17
2019-03-16T17:27:54.343Z,100391.37
2019-03-16T17:30:24.187Z,100405.88
2019-03-16T17:32:52.007Z,100393.42
2019-03-16T17:35:20.047Z,100391.25
2019-03-16T17:37:47.890Z,100390.66
2019-03-16T17:40:15.761Z,100389.81
2019-03-16T17:42:43.859Z,100392.72
2019-03-16T17:45:11.677Z,100378.41
2019-03-16T17:47:39.517Z,100368.16
2019-03-16T17:50:08.002Z,100361.20
2019-03-16T17:52:35.807Z,100360.88
2019-03-16T17:55:04.579Z,100355.16
2019-03-16T17:57:32.741Z,100344.91
2019-03-16T18:00:00.530Z,100349.74
2019-03-16T18:02:28.363Z,100345.53
2019-03-16T18:04:56.332Z,100345.91
2019-03-16T18:07:24.174Z,100342.29
2019-03-16T18:09:51.976Z,100344.73
2019-03-16T18:12:19.947Z,100331.70
2019-03-16T18:14:47.973Z,100326.18
2019-03-16T18:17:15.768Z,100323.52
2019-03-16T18:19:43.904Z,100315.83
2019-03-16T18:22:11.723Z,100315.23
2019-03-16T18:24:39.722Z,100318.09
2019-03-16T18:27:07.557Z,100312.02
2019-03-16T18:29:37.203Z,100299.78
2019-03-16T18:32:08.149Z,100305.72
2019-03-16T18:34:37.436Z,100303.59
2019-03-16T18:37:07.768Z,100305.55
2019-03-16T18:39:35.663Z,100312.73
2019-03-16T18:42:03.914Z,100302.20
2019-03-16T18:44:31.912Z,100296.17
2019-03-16T18:46:59.756Z,100292.69
2019-03-16T18:49:27.614Z,100291.55
2019-03-16T18:51:55.531Z,100305.55
2019-03-16T18:54:24.444Z,100302.10
2019-03-16T18:56:52.460Z,100302.09
2019-03-16T18:59:20.449Z,100302.06
2019-03-16T19:01:49.333Z,100299.19
2019-03-16T19:04:17.319Z,100288.63
2019-03-16T19:06:45.224Z,100290.12
2019-03-16T19:09:13.158Z,100291.20
2019-03-16T19:11:41.405Z,100293.67
2019-03-16T19:14:09.270Z,100289.58
2019-03-16T19:16:37.243Z,100290.22
2019-03-16T19:19:05.281Z,100276.13
2019-03-16T19:21:33.119Z,100271.59
2019-03-16T19:24:00.956Z,100272.19
2019-03-16T19:26:30.190Z,100266.88
2019-03-16T19:28:58.505Z,100261.97
2019-03-16T19:31:26.439Z,100255.97
2019-03-16T19:33:54.260Z,100252.08
2019-03-16T19:36:22.313Z,100240.84
2019-03-16T19:38:50.280Z,100251.75
2019-03-16T19:41:18.271Z,100247.37
2019-03-16T19:43:46.138Z,100242.41
2019-03-16T19:46:16.945Z,100240.39
2019-03-16T19:48:45.038Z,100242.51
2019-03-16T19:51:12.850Z,100237.60
2019-03-16T19:53:40.710Z,100236.78
2019-03-16T19:56:09.045Z,100238.00
2019-03-16T19:58:37.157Z,100225.38
2019-03-16T20:01:05.117Z,100223.79
2019-03-16T20:03:32.993Z,100227.56
2019-03-16T20:06:00.804Z,100232.31
2019-03-16T20:08:28.830Z,100222.27
2019-03-16T20:11:05.978Z,100212.76
2019-03-16T20:13:26.361Z,100204.29
2019-03-16T20:15:54.384Z,100204.14
2019-03-16T20:18:22.315Z,100205.51
2019-03-16T20:20:50.696Z,100199.98
2019-03-16T20:23:18.900Z,100189.43
2019-03-16T20:25:46.760Z,100194.23
2019-03-16T20:28:14.787Z,100193.09
2019-03-16T20:30:42.616Z,100183.97
2019-03-16T20:33:10.621Z,100184.08
2019-03-16T20:35:38.462Z,100168.70
2019-03-16T20:38:06.768Z,100167.72
2019-03-16T20:40:34.750Z,100172.67
2019-03-16T20:43:02.558Z,100171.83
2019-03-16T20:45:30.625Z,100168.75
2019-03-16T20:47:58.764Z,100166.66
2019-03-16T20:50:26.577Z,100163.72
2019-03-16T20:52:54.419Z,100158.05
2019-03-16T20:55:22.596Z,100157.75
2019-03-16T20:57:50.649Z,100155.51
2019-03-16T21:00:18.460Z,100149.35
2019-03-16T21:02:48.557Z,100144.54
2019-03-16T21:05:16.379Z,100142.98
2019-03-16T21:07:44.634Z,100137.00
2019-03-16T21:10:12.669Z,100131.11
2019-03-16T21:12:40.742Z,100136.72
2019-03-16T21:15:09.115Z,100140.54
2019-03-16T21:17:36.920Z,100123.86
2019-03-16T21:20:06.999Z,100120.94
2019-03-16T21:22:38.753Z,100117.94
2019-03-16T21:25:05.603Z,100112.84
2019-03-16T21:27:33.439Z,100110.45
2019-03-16T21:30:02.320Z,100108.05
2019-03-16T21:32:30.275Z,100113.09
2019-03-16T21:34:58.238Z,100101.45
2019-03-16T21:37:26.053Z,100106.81
2019-03-16T21:39:53.896Z,100097.45
2019-03-16T21:42:21.859Z,100099.09
2019-03-16T21:44:49.767Z,100104.89
2019-03-16T21:47:17.688Z,100093.37
2019-03-16T21:49:45.639Z,100090.38
2019-03-16T21:52:13.656Z,100083.45
2019-03-16T21:54:41.459Z,100073.09
2019-03-16T21:57:09.358Z,100075.30
2019-03-16T21:59:37.357Z,100066.41
2019-03-16T22:02:05.543Z,100068.81
2019-03-16T22:04:33.476Z,100067.51
2019-03-16T22:07:01.497Z,100069.30
2019-03-16T22:09:29.281Z,100057.80
2019-03-16T22:11:57.120Z,100070.13
2019-03-16T22:14:25.172Z,100061.50
2019-03-16T22:16:53.010Z,100058.42
2019-03-16T22:19:20.942Z,100056.42
2019-03-16T22:21:48.745Z,100049.22
2019-03-16T22:24:16.759Z,100046.23
2019-03-16T22:26:45.293Z,100053.33
2019-03-16T22:29:13.491Z,100047.43
2019-03-16T22:31:41.288Z,100040.11
2019-03-16T22:34:09.428Z,100040.27
2019-03-16T22:36:37.298Z,100045.85
2019-03-16T22:39:07.704Z,100033.51
2019-03-16T22:41:35.560Z,100010.58
2019-03-16T22:44:03.766Z,100014.69
2019-03-16T22:46:31.946Z,100010.76
2019-03-16T22:48:59.918Z,100016.60
2019-03-16T22:51:27.866Z,100028.34
2019-03-16T22:53:56.152Z,100024.24
2019-03-16T22:56:23.955Z,100018.55
2019-03-16T22:58:53.185Z,100012.23
2019-03-16T23:01:21.278Z,100018.46
2019-03-16T23:03:49.183Z,100025.81
2019-03-16T23:06:17.026Z,100003.28
2019-03-16T23:08:44.972Z,100000.98
2019-03-16T23:11:13.006Z,99986.98
2019-03-16T23:13:41.177Z,99980.64
2019-03-16T23:16:09.047Z,99978.44
2019-03-16T23:18:37.744Z,99974.92
2019-03-16T23:21:05.828Z,99976.50
2019-03-16T23:23:33.932Z,99963.03
2019-03-16T23:26:03.611Z,99958.53
2019-03-16T23:28:31.860Z,99958.85
2019-03-16T23:31:00.033Z,99954.67
2019-03-16T23:33:28.148Z,99942.13
2019-03-16T23:35:56.347Z,99929.03
2019-03-16T23:38:24.435Z,99919.83
2019-03-16T23:40:52.462Z,99918.63
2019-03-16T23:43:20.435Z,99905.59
2019-03-16T23:45:48.415Z,99909.98
2019-03-16T23:48:17.333Z,99916.12
2019-03-16T23:50:45.147Z,99919.05
2019-03-16T23:53:14.729Z,99915.83
2019-03-16T23:55:42.758Z,99912.57
2019-03-16T23:58:10.737Z,99914.88
